Lame Deer, Montana
Current Conditions -  °F | °C
As of 7:53 PM on Wednesday 22 Oct 2014 (Local Time) from KSHR Reporting Station
Clear Clear  
Wind Chill: 32°   Ceiling: Unl
Heat Index: 38°   Visibility: 10mi
Dew Point: 28°   Wind: 8mph
Humidity: 68%   Direction: 210°SSW
Pressure: 29.99"   Gusts: NA
Location:  45.63°N, 106.67°W
Report Text: KSHR 230153Z AUTO 21007KT 10SM CLR 03/M02 A2999 RMK AO2 SLP177 T00331022 TSNO
Loading
Personal Weather Stations






























Interactive Weather Map
Tropical Storm Tracking
New forecast layout! Learn more

10-Day Weather Forecast

Advertisements
Track Severe Weather on mobile